Time;durP1;ratioP1;P1;durP2;ratioP2;P2;SDS_P1;SDS_P2;PMS_P1;PMS_P2;Temp;Humidity;BMP_temperature;BMP_pressure;BME280_temperature;BME280_humidity;BME280_pressure;Samples;Min_cycle;Max_cycle;Signal;HPM_P1;HPM_P2
2024/01/26 00:00:23;;;;;;;2.15;0.43;;;9.80;99.90;;;;;;5071089;28;20035;-81
2024/01/26 00:02:49;;;;;;;2.22;0.70;;;9.70;99.90;;;;;;5070775;28;20064;-81
2024/01/26 00:05:15;;;;;;;2.30;0.63;;;9.60;99.90;;;;;;5071683;28;20028;-80
2024/01/26 00:07:40;;;;;;;3.08;0.95;;;9.50;99.90;;;;;;5053820;28;20115;-80
2024/01/26 00:10:06;;;;;;;4.50;0.75;;;9.40;99.90;;;;;;5053216;28;20051;-83
2024/01/26 00:12:33;;;;;;;3.90;0.73;;;9.40;99.90;;;;;;5071149;28;20031;-81
2024/01/26 00:14:58;;;;;;;3.10;0.63;;;9.40;99.90;;;;;;5070556;28;20033;-82
2024/01/26 00:17:24;;;;;;;2.38;0.80;;;9.30;99.90;;;;;;5053054;28;20126;-81
2024/01/26 00:19:50;;;;;;;2.17;0.70;;;9.30;99.90;;;;;;5070862;28;20346;-81
2024/01/26 00:22:16;;;;;;;1.88;0.65;;;9.20;99.90;;;;;;5070810;28;20037;-81
2024/01/26 00:24:41;;;;;;;5.13;0.90;;;9.20;99.90;;;;;;5070382;28;20105;-82
2024/01/26 00:27:07;;;;;;;5.93;1.10;;;9.20;99.90;;;;;;5070259;28;20024;-81
2024/01/26 00:29:33;;;;;;;4.45;0.90;;;9.20;99.90;;;;;;5070823;28;20072;-81
2024/01/26 00:31:58;;;;;;;6.82;1.00;;;9.10;99.90;;;;;;5052061;28;20067;-84
2024/01/26 00:34:52;;;;;;;3.25;0.85;;;9.10;99.90;;;;;;5054719;28;20028;-91
2024/01/26 00:37:18;;;;;;;1.95;0.70;;;8.60;99.90;;;;;;5071304;28;20061;-86
2024/01/26 00:39:43;;;;;;;2.42;0.60;;;8.20;99.90;;;;;;5069547;28;20107;-84
2024/01/26 00:42:09;;;;;;;2.08;0.50;;;8.00;99.90;;;;;;5052390;28;20123;-81
2024/01/26 00:44:36;;;;;;;0.68;0.30;;;7.70;99.90;;;;;;5052993;28;20032;-81
2024/01/26 00:47:03;;;;;;;0.82;0.40;;;7.70;99.90;;;;;;5069570;28;20016;-80
2024/01/26 00:49:29;;;;;;;4.32;0.73;;;7.60;99.90;;;;;;5070377;28;20025;-78
2024/01/26 00:51:55;;;;;;;1.88;0.70;;;7.50;99.90;;;;;;5069840;28;20523;-81
2024/01/26 00:54:21;;;;;;;0.85;0.40;;;7.50;99.90;;;;;;5070187;28;20025;-81
2024/01/26 00:56:47;;;;;;;3.60;0.50;;;7.40;99.90;;;;;;5051402;28;20052;-79
2024/01/26 00:59:13;;;;;;;3.33;0.40;;;7.40;99.90;;;;;;5051252;28;20385;-79
2024/01/26 01:01:38;;;;;;;3.40;0.43;;;7.30;99.90;;;;;;5069898;28;20024;-79
2024/01/26 01:04:05;;;;;;;3.72;0.93;;;7.30;99.90;;;;;;5051813;28;20075;-79
2024/01/26 01:06:31;;;;;;;3.60;0.82;;;7.20;99.90;;;;;;5070432;28;20013;-80
2024/01/26 01:08:57;;;;;;;2.15;0.65;;;7.30;99.90;;;;;;5069595;28;20165;-79
2024/01/26 01:11:22;;;;;;;1.02;0.40;;;7.20;99.90;;;;;;5069776;28;20123;-79
2024/01/26 01:13:49;;;;;;;4.00;0.75;;;7.20;99.90;;;;;;5069872;28;20033;-80
2024/01/26 01:16:17;;;;;;;3.00;0.60;;;7.20;99.90;;;;;;5069948;28;20052;-77
2024/01/26 01:18:43;;;;;;;3.95;0.68;;;7.20;99.90;;;;;;5070222;28;20442;-82
2024/01/26 01:21:09;;;;;;;5.53;0.75;;;7.20;99.90;;;;;;5070534;28;20056;-78
2024/01/26 01:23:36;;;;;;;4.10;0.75;;;7.20;99.90;;;;;;5070579;28;20116;-79
2024/01/26 01:26:01;;;;;;;2.70;0.73;;;7.20;99.90;;;;;;5051986;28;20032;-79
2024/01/26 01:28:28;;;;;;;3.70;1.02;;;7.20;99.90;;;;;;5070623;28;20025;-78
2024/01/26 01:30:54;;;;;;;2.65;0.77;;;7.20;99.90;;;;;;5070038;28;20052;-79
2024/01/26 01:33:20;;;;;;;4.28;0.75;;;7.10;99.90;;;;;;5070845;28;20445;-79
2024/01/26 01:35:45;;;;;;;4.88;0.93;;;7.10;99.90;;;;;;5052147;28;20025;-82
2024/01/26 01:38:11;;;;;;;3.50;0.70;;;7.00;99.90;;;;;;5070423;28;20028;-78
2024/01/26 01:40:37;;;;;;;5.50;0.85;;;7.00;99.90;;;;;;5070481;28;20025;-78
2024/01/26 01:43:03;;;;;;;2.08;0.47;;;6.90;99.90;;;;;;5069609;28;20085;-78
2024/01/26 01:45:29;;;;;;;1.80;0.50;;;6.90;99.90;;;;;;5070571;28;20020;-78
2024/01/26 01:47:54;;;;;;;3.45;0.60;;;6.80;99.90;;;;;;5069382;28;20028;-78
2024/01/26 01:50:20;;;;;;;4.97;0.65;;;6.80;99.90;;;;;;5052335;28;20434;-78
2024/01/26 01:52:48;;;;;;;1.98;0.85;;;6.80;99.90;;;;;;5070099;28;20476;-81
2024/01/26 01:55:15;;;;;;;3.45;0.50;;;6.70;99.90;;;;;;5070746;28;20122;-78
2024/01/26 01:57:44;;;;;;;4.68;0.65;;;6.70;99.90;;;;;;5070056;28;20091;-77
2024/01/26 02:00:17;;;;;;;2.67;0.50;;;6.60;99.90;;;;;;5051648;28;20031;-78
2024/01/26 02:02:47;;;;;;;2.38;0.47;;;6.60;99.90;;;;;;5052116;28;20472;-78
2024/01/26 02:05:13;;;;;;;4.07;0.60;;;6.70;99.90;;;;;;5051833;28;20174;-78
2024/01/26 02:07:39;;;;;;;2.30;0.70;;;6.60;99.90;;;;;;5070301;28;20101;-77
2024/01/26 02:10:15;;;;;;;1.73;0.73;;;6.60;99.90;;;;;;5051345;28;20116;-78
2024/01/26 02:12:41;;;;;;;4.60;0.82;;;6.50;99.90;;;;;;5052026;28;20075;-78
2024/01/26 02:15:08;;;;;;;4.63;1.13;;;6.50;99.90;;;;;;5051739;28;20474;-78
2024/01/26 02:17:35;;;;;;;4.07;0.85;;;6.40;99.90;;;;;;5069726;28;20024;-77
2024/01/26 02:20:03;;;;;;;4.82;0.88;;;6.30;99.90;;;;;;5069300;28;20017;-77
2024/01/26 02:22:30;;;;;;;7.07;0.90;;;6.30;99.90;;;;;;5051546;28;20044;-78
2024/01/26 02:24:55;;;;;;;2.38;0.77;;;6.30;99.90;;;;;;5069052;28;20029;-79
2024/01/26 02:27:21;;;;;;;5.32;0.80;;;6.30;99.90;;;;;;5071364;28;20207;-78
2024/01/26 02:29:48;;;;;;;4.45;1.00;;;6.30;99.90;;;;;;5072901;28;20107;-81
2024/01/26 02:32:14;;;;;;;4.32;1.00;;;6.30;99.90;;;;;;5055180;28;20032;-78
2024/01/26 02:34:40;;;;;;;8.65;1.23;;;6.30;99.90;;;;;;5073693;28;20033;-77
2024/01/26 02:37:06;;;;;;;4.50;0.65;;;6.30;99.90;;;;;;5054735;28;20028;-77
2024/01/26 02:39:33;;;;;;;5.57;1.10;;;6.30;99.90;;;;;;5073320;28;20119;-78
2024/01/26 02:41:59;;;;;;;5.28;0.90;;;6.40;99.90;;;;;;5072662;28;20068;-79
2024/01/26 02:44:25;;;;;;;4.97;1.00;;;6.40;99.90;;;;;;5073189;28;20029;-77
2024/01/26 02:46:51;;;;;;;2.58;0.60;;;6.30;99.90;;;;;;5073212;28;20020;-78
2024/01/26 02:49:17;;;;;;;4.00;0.50;;;6.30;99.90;;;;;;5073011;28;20395;-77
2024/01/26 02:51:42;;;;;;;1.67;0.70;;;6.20;99.90;;;;;;5065518;28;20036;-78
2024/01/26 02:54:08;;;;;;;2.75;0.63;;;6.10;99.90;;;;;;5067847;28;20032;-78
2024/01/26 02:56:34;;;;;;;3.08;0.50;;;6.00;99.90;;;;;;5059770;28;20512;-78
2024/01/26 02:59:00;;;;;;;5.75;0.90;;;6.00;99.90;;;;;;5072638;28;20087;-79
2024/01/26 03:01:26;;;;;;;4.60;0.30;;;5.80;99.90;;;;;;5073239;28;20035;-81
2024/01/26 03:03:51;;;;;;;3.42;0.90;;;5.80;99.90;;;;;;5072259;28;20134;-81
2024/01/26 03:06:18;;;;;;;5.07;0.85;;;5.70;99.90;;;;;;5073473;28;20150;-80
2024/01/26 03:08:43;;;;;;;3.78;0.73;;;5.70;99.90;;;;;;5072364;28;20453;-80
2024/01/26 03:11:12;;;;;;;3.35;0.70;;;5.70;99.90;;;;;;5072590;28;20037;-80
2024/01/26 03:13:39;;;;;;;2.60;0.82;;;5.60;99.90;;;;;;5054603;28;20035;-80
2024/01/26 03:16:05;;;;;;;4.75;0.60;;;5.60;99.90;;;;;;5072080;28;20021;-80
2024/01/26 03:18:31;;;;;;;2.15;0.80;;;5.50;99.90;;;;;;5072368;28;20021;-81
2024/01/26 03:20:57;;;;;;;2.85;0.70;;;5.50;99.90;;;;;;5071243;28;20033;-80
2024/01/26 03:23:23;;;;;;;2.85;0.77;;;5.50;99.90;;;;;;5072545;28;20025;-80
2024/01/26 03:25:48;;;;;;;4.57;0.80;;;5.50;99.90;;;;;;5072203;28;20066;-80
2024/01/26 03:28:14;;;;;;;3.75;0.85;;;5.50;99.90;;;;;;5053501;28;20032;-81
2024/01/26 03:30:42;;;;;;;4.68;0.85;;;5.50;99.90;;;;;;5071933;28;20024;-80
2024/01/26 03:33:09;;;;;;;7.20;0.77;;;5.50;99.90;;;;;;5071525;28;20032;-80
2024/01/26 03:35:34;;;;;;;6.18;1.27;;;5.40;99.90;;;;;;5054114;28;20123;-80
2024/01/26 03:38:01;;;;;;;8.52;1.15;;;5.40;99.90;;;;;;5071382;28;20183;-81
2024/01/26 03:40:27;;;;;;;5.05;0.80;;;5.40;99.90;;;;;;5071646;28;20032;-80
2024/01/26 03:42:53;;;;;;;3.95;1.10;;;5.30;99.90;;;;;;5053533;28;20036;-84
2024/01/26 03:45:19;;;;;;;4.30;0.80;;;5.30;99.90;;;;;;5053831;28;20043;-79
2024/01/26 03:47:45;;;;;;;5.65;1.02;;;5.40;99.90;;;;;;5072145;28;20074;-78
2024/01/26 03:50:10;;;;;;;5.75;1.40;;;5.30;99.90;;;;;;5053044;28;20029;-78
2024/01/26 03:52:36;;;;;;;5.88;1.10;;;5.30;99.90;;;;;;5071918;28;20029;-78
2024/01/26 03:55:03;;;;;;;8.10;1.60;;;5.30;99.90;;;;;;5071033;28;20025;-79
2024/01/26 03:57:28;;;;;;;5.22;0.80;;;5.30;99.90;;;;;;5053485;28;20051;-79
2024/01/26 03:59:54;;;;;;;5.88;1.63;;;5.30;99.90;;;;;;5071408;28;20051;-82
2024/01/26 04:02:20;;;;;;;7.80;1.73;;;5.30;99.90;;;;;;5053817;28;20032;-79
2024/01/26 04:04:45;;;;;;;6.25;1.40;;;5.30;99.90;;;;;;5053713;28;20041;-79
2024/01/26 04:07:11;;;;;;;5.85;1.33;;;5.30;99.90;;;;;;5071013;28;20031;-78
2024/01/26 04:09:37;;;;;;;3.28;1.17;;;5.20;99.90;;;;;;5071612;28;20486;-79
2024/01/26 04:12:04;;;;;;;8.45;1.10;;;5.20;99.90;;;;;;5071316;28;20044;-79
2024/01/26 04:14:30;;;;;;;9.68;1.65;;;5.20;99.90;;;;;;5053618;28;20330;-79
2024/01/26 04:16:55;;;;;;;9.57;1.83;;;5.20;99.90;;;;;;5071153;28;20115;-81
2024/01/26 04:19:21;;;;;;;4.85;1.27;;;5.20;99.90;;;;;;5071411;28;20021;-78
2024/01/26 04:21:49;;;;;;;11.23;1.75;;;5.20;99.90;;;;;;5071186;28;20032;-79
2024/01/26 04:24:15;;;;;;;6.97;1.60;;;5.20;99.90;;;;;;5070559;28;20017;-79
2024/01/26 04:26:41;;;;;;;14.35;1.80;;;5.20;99.90;;;;;;5053295;28;20025;-79
2024/01/26 04:29:07;;;;;;;12.38;1.27;;;5.20;99.90;;;;;;5071020;28;20032;-79
2024/01/26 04:31:33;;;;;;;8.57;1.98;;;5.10;99.90;;;;;;5071011;28;20039;-78
2024/01/26 04:33:59;;;;;;;7.18;1.35;;;5.10;99.90;;;;;;5070894;28;20069;-79
2024/01/26 04:36:25;;;;;;;7.45;1.58;;;5.20;99.90;;;;;;5052879;28;20031;-79
2024/01/26 04:38:51;;;;;;;14.55;2.20;;;5.10;99.90;;;;;;5070943;28;20074;-79
2024/01/26 04:41:16;;;;;;;9.40;1.92;;;5.10;99.90;;;;;;5070162;28;20036;-79
2024/01/26 04:43:43;;;;;;;10.23;1.90;;;5.10;99.90;;;;;;5053320;28;20032;-80
2024/01/26 04:46:08;;;;;;;12.38;2.42;;;5.10;99.90;;;;;;5069938;28;20496;-80
2024/01/26 04:48:34;;;;;;;11.10;2.00;;;5.10;99.90;;;;;;5070438;28;20024;-79
2024/01/26 04:51:00;;;;;;;12.93;2.28;;;5.00;99.90;;;;;;5069539;28;20449;-80
2024/01/26 04:53:26;;;;;;;9.35;1.98;;;5.10;99.90;;;;;;5070460;28;20462;-79
2024/01/26 04:55:53;;;;;;;10.38;1.90;;;5.00;99.90;;;;;;5070299;28;20017;-80
2024/01/26 04:58:19;;;;;;;13.98;2.25;;;4.90;99.90;;;;;;5070143;28;20044;-80
2024/01/26 05:00:46;;;;;;;15.73;2.03;;;5.00;99.90;;;;;;5070574;28;20040;-80
2024/01/26 05:03:12;;;;;;;13.70;2.40;;;4.90;99.90;;;;;;5070118;28;20028;-80
2024/01/26 05:05:38;;;;;;;12.77;2.90;;;4.90;99.90;;;;;;5070313;28;20484;-80
2024/01/26 05:08:04;;;;;;;11.07;2.10;;;4.90;99.90;;;;;;5070008;28;20025;-80
2024/01/26 05:10:30;;;;;;;11.10;2.17;;;5.00;99.90;;;;;;5070488;28;20036;-79
2024/01/26 05:12:55;;;;;;;13.18;2.40;;;4.90;99.90;;;;;;5070241;28;20029;-79
2024/01/26 05:15:21;;;;;;;9.10;2.17;;;4.90;99.90;;;;;;5069986;28;20033;-79
2024/01/26 05:17:47;;;;;;;8.02;2.13;;;4.90;99.90;;;;;;5077848;28;20032;-79
2024/01/26 05:20:13;;;;;;;11.35;2.25;;;4.90;99.90;;;;;;5083115;28;20099;-79
2024/01/26 05:22:39;;;;;;;12.98;2.28;;;4.80;99.90;;;;;;5053955;28;20146;-78
2024/01/26 05:25:05;;;;;;;13.50;2.22;;;4.80;99.90;;;;;;5052200;28;20140;-79
2024/01/26 05:27:31;;;;;;;13.98;2.58;;;4.80;99.90;;;;;;5051918;28;20508;-80
2024/01/26 05:29:57;;;;;;;12.23;2.40;;;4.70;99.90;;;;;;5070541;28;20064;-79
2024/01/26 05:32:22;;;;;;;16.90;2.30;;;4.80;99.90;;;;;;5051381;28;20108;-80
2024/01/26 05:34:48;;;;;;;9.77;2.15;;;4.80;99.90;;;;;;5070661;28;20029;-81
2024/01/26 05:37:14;;;;;;;16.42;3.17;;;4.80;99.90;;;;;;5051668;28;20051;-80
2024/01/26 05:39:41;;;;;;;15.38;2.30;;;4.80;99.90;;;;;;5070496;28;20102;-80
2024/01/26 05:42:06;;;;;;;12.35;3.30;;;4.80;99.90;;;;;;5051687;28;20428;-80
2024/01/26 05:44:32;;;;;;;16.15;2.63;;;4.80;99.90;;;;;;5052680;28;20041;-79
2024/01/26 05:46:58;;;;;;;14.73;2.40;;;4.80;99.90;;;;;;5069929;28;20521;-79
2024/01/26 05:49:25;;;;;;;12.18;2.40;;;4.80;99.90;;;;;;5069878;28;20092;-79
2024/01/26 05:51:51;;;;;;;16.52;2.30;;;4.80;99.90;;;;;;5070342;28;20108;-79
2024/01/26 05:54:17;;;;;;;17.25;2.92;;;4.80;99.90;;;;;;5051724;28;20055;-79
2024/01/26 05:56:43;;;;;;;11.18;2.17;;;4.80;99.90;;;;;;5070308;28;20455;-79
2024/01/26 05:59:09;;;;;;;20.23;2.72;;;4.80;99.90;;;;;;5069458;28;20076;-80
2024/01/26 06:01:35;;;;;;;14.73;2.40;;;4.80;99.90;;;;;;5072130;28;20533;-77
2024/01/26 06:04:01;;;;;;;15.98;2.55;;;4.70;99.90;;;;;;5055949;28;20029;-81
2024/01/26 06:06:27;;;;;;;14.15;2.47;;;4.80;99.90;;;;;;5056015;28;20299;-78
2024/01/26 06:08:53;;;;;;;21.15;3.42;;;4.80;99.90;;;;;;5074297;28;20082;-77
2024/01/26 06:11:20;;;;;;;16.50;3.13;;;4.80;99.90;;;;;;5054955;28;20428;-79
2024/01/26 06:13:46;;;;;;;14.80;2.67;;;4.80;99.90;;;;;;5073481;28;20046;-78
2024/01/26 06:16:15;;;;;;;18.90;2.90;;;4.80;99.90;;;;;;5055066;28;20490;-78
2024/01/26 06:18:43;;;;;;;9.63;2.60;;;4.80;99.90;;;;;;5073844;28;20075;-78
2024/01/26 06:21:10;;;;;;;16.58;2.63;;;4.80;99.90;;;;;;5055355;28;20056;-78
2024/01/26 06:23:36;;;;;;;19.05;2.88;;;4.80;99.90;;;;;;5073435;28;20107;-78
2024/01/26 06:26:01;;;;;;;11.93;2.42;;;4.80;99.90;;;;;;5055673;28;20063;-77
2024/01/26 06:28:27;;;;;;;12.73;2.58;;;4.90;99.90;;;;;;5072934;28;20377;-77
2024/01/26 06:30:53;;;;;;;11.55;2.83;;;4.90;99.90;;;;;;5055410;28;20078;-77
2024/01/26 06:33:19;;;;;;;13.68;2.70;;;4.80;99.90;;;;;;5054846;28;20055;-78
2024/01/26 06:35:44;;;;;;;13.50;2.58;;;4.90;99.90;;;;;;5055135;28;20060;-77
2024/01/26 06:38:10;;;;;;;17.35;2.78;;;4.90;99.90;;;;;;5072631;28;20135;-78
2024/01/26 06:40:36;;;;;;;11.95;2.60;;;4.90;99.90;;;;;;5072957;28;20025;-78
2024/01/26 06:43:05;;;;;;;14.05;2.38;;;4.90;99.90;;;;;;5054700;28;20119;-78
2024/01/26 06:45:31;;;;;;;15.98;2.85;;;4.80;99.90;;;;;;5073525;28;20036;-78
2024/01/26 06:47:57;;;;;;;17.95;2.40;;;4.80;99.90;;;;;;5073067;28;20142;-77
2024/01/26 06:50:22;;;;;;;19.30;2.97;;;4.80;99.90;;;;;;5054337;28;20143;-78
2024/01/26 06:52:48;;;;;;;14.90;2.63;;;4.80;99.90;;;;;;5073164;28;20036;-78
2024/01/26 06:55:14;;;;;;;14.05;2.35;;;4.80;99.90;;;;;;5054542;28;20025;-78
2024/01/26 06:57:39;;;;;;;17.85;2.40;;;4.70;99.90;;;;;;5054333;28;20482;-79
2024/01/26 07:00:07;;;;;;;12.85;2.50;;;4.70;99.90;;;;;;5072711;28;20056;-81
2024/01/26 07:02:33;;;;;;;12.90;2.63;;;4.70;99.90;;;;;;5072494;28;20025;-78
2024/01/26 07:04:59;;;;;;;10.82;2.55;;;4.70;99.90;;;;;;5072886;28;20037;-78
2024/01/26 07:07:25;;;;;;;9.88;2.53;;;4.70;99.90;;;;;;5054443;28;20085;-78
2024/01/26 07:09:50;;;;;;;14.70;2.67;;;4.70;99.90;;;;;;5072579;28;20031;-78
2024/01/26 07:12:16;;;;;;;17.95;2.80;;;4.70;99.90;;;;;;5071673;28;20033;-81
2024/01/26 07:14:42;;;;;;;10.13;2.25;;;4.70;99.90;;;;;;5072548;28;20028;-80
2024/01/26 07:17:08;;;;;;;11.32;2.53;;;4.70;99.90;;;;;;5071952;28;20032;-82
2024/01/26 07:19:34;;;;;;;9.05;2.28;;;4.70;99.90;;;;;;5072412;28;20024;-77
2024/01/26 07:21:59;;;;;;;12.02;2.35;;;4.70;99.90;;;;;;5072428;28;20377;-79
2024/01/26 07:24:25;;;;;;;9.18;2.67;;;4.70;99.90;;;;;;5071518;28;20446;-78
2024/01/26 07:26:52;;;;;;;15.77;2.55;;;4.70;99.90;;;;;;5072149;28;20138;-78
2024/01/26 07:29:18;;;;;;;14.65;3.15;;;4.70;99.90;;;;;;5071601;28;20040;-79
2024/01/26 07:31:45;;;;;;;16.45;2.72;;;4.80;99.90;;;;;;5072196;28;20024;-79
2024/01/26 07:34:10;;;;;;;16.02;2.83;;;4.80;99.90;;;;;;5071672;28;20032;-79
2024/01/26 07:36:36;;;;;;;16.25;3.22;;;4.80;99.90;;;;;;5071981;28;20055;-79
2024/01/26 07:39:03;;;;;;;17.00;3.20;;;4.80;99.90;;;;;;5071823;28;20025;-78
2024/01/26 07:41:30;;;;;;;17.05;2.72;;;4.80;99.90;;;;;;5071127;28;20055;-79
2024/01/26 07:43:55;;;;;;;15.18;2.80;;;4.80;99.90;;;;;;5072128;28;20074;-79
2024/01/26 07:46:21;;;;;;;19.73;2.92;;;4.80;99.90;;;;;;5071046;28;20436;-80
2024/01/26 07:48:47;;;;;;;18.85;2.80;;;4.80;99.90;;;;;;5071225;28;20086;-79
2024/01/26 07:51:12;;;;;;;15.82;2.58;;;4.80;99.90;;;;;;5053206;28;20060;-80
2024/01/26 07:53:38;;;;;;;17.40;2.58;;;4.80;99.90;;;;;;5071377;28;20374;-79
2024/01/26 07:56:04;;;;;;;16.02;2.25;;;4.80;99.90;;;;;;5071708;28;20103;-79
2024/01/26 07:58:30;;;;;;;13.23;2.42;;;4.80;99.90;;;;;;5052515;28;20577;-79
2024/01/26 08:00:55;;;;;;;9.38;2.38;;;4.80;99.90;;;;;;5071254;28;20428;-79
2024/01/26 08:03:21;;;;;;;20.50;3.05;;;4.80;99.90;;;;;;5071096;28;20048;-79
2024/01/26 08:05:47;;;;;;;23.13;3.28;;;4.80;99.90;;;;;;5071168;28;20103;-79
2024/01/26 08:08:12;;;;;;;15.50;3.05;;;4.80;99.90;;;;;;5070659;28;20024;-79
2024/01/26 08:10:38;;;;;;;14.95;3.00;;;4.90;99.90;;;;;;5070935;28;20028;-78
2024/01/26 08:13:04;;;;;;;13.63;2.97;;;4.80;99.90;;;;;;5071310;28;20090;-79
2024/01/26 08:15:30;;;;;;;26.58;4.20;;;4.90;99.90;;;;;;5070578;28;20039;-79
2024/01/26 08:17:55;;;;;;;15.20;3.33;;;4.80;99.90;;;;;;5071210;28;20491;-79
2024/01/26 08:20:21;;;;;;;16.63;2.70;;;4.80;99.90;;;;;;5070381;28;20028;-79
2024/01/26 08:22:47;;;;;;;18.63;3.70;;;4.90;99.90;;;;;;5070724;28;20036;-79
2024/01/26 08:25:13;;;;;;;16.42;3.15;;;4.80;99.90;;;;;;5069860;28;20040;-81
2024/01/26 08:27:38;;;;;;;13.48;2.50;;;4.80;99.90;;;;;;5071083;28;20032;-79
2024/01/26 08:30:05;;;;;;;18.23;2.85;;;4.80;99.90;;;;;;5070959;28;20036;-78
2024/01/26 08:32:31;;;;;;;15.30;3.00;;;4.80;99.90;;;;;;5074420;28;20100;-78
2024/01/26 08:34:56;;;;;;;18.08;3.17;;;4.80;99.90;;;;;;5078628;28;20028;-78
2024/01/26 08:37:23;;;;;;;17.13;3.10;;;4.80;99.90;;;;;;5073836;28;20168;-78
2024/01/26 08:39:50;;;;;;;11.10;2.50;;;4.80;99.90;;;;;;5052912;28;20102;-79
2024/01/26 08:42:16;;;;;;;10.63;2.20;;;4.80;99.90;;;;;;5035655;28;20138;-79
2024/01/26 08:44:42;;;;;;;11.43;2.28;;;4.80;99.90;;;;;;5070791;28;20077;-79
2024/01/26 08:47:08;;;;;;;17.77;3.38;;;4.80;99.90;;;;;;5070864;28;20099;-79
2024/01/26 08:49:34;;;;;;;10.95;1.73;;;4.80;99.90;;;;;;5052174;28;20070;-78
2024/01/26 08:52:00;;;;;;;14.43;3.25;;;4.80;99.90;;;;;;5070091;28;20462;-78
2024/01/26 08:54:26;;;;;;;11.15;2.80;;;4.80;99.90;;;;;;5069979;28;20382;-78
2024/01/26 08:56:51;;;;;;;8.88;2.28;;;4.80;99.90;;;;;;5052461;28;20021;-78
2024/01/26 08:59:17;;;;;;;15.65;3.22;;;4.80;99.90;;;;;;5070181;28;20123;-79
2024/01/26 09:01:43;;;;;;;21.13;3.63;;;4.80;99.90;;;;;;5070355;28;20028;-77
2024/01/26 09:04:09;;;;;;;10.40;2.63;;;4.80;99.90;;;;;;5070397;28;20031;-78
2024/01/26 09:06:35;;;;;;;12.93;2.50;;;4.90;99.90;;;;;;5070387;28;20046;-79
2024/01/26 09:09:02;;;;;;;11.30;1.90;;;4.90;99.90;;;;;;5069957;28;20120;-78
2024/01/26 09:11:28;;;;;;;14.70;2.40;;;4.90;99.90;;;;;;5069497;28;20028;-78
2024/01/26 09:13:54;;;;;;;13.95;2.55;;;5.00;99.90;;;;;;5070103;28;20374;-79
2024/01/26 09:16:20;;;;;;;17.58;3.08;;;5.00;99.90;;;;;;5069169;28;20020;-78
2024/01/26 09:18:46;;;;;;;13.40;2.53;;;5.00;99.90;;;;;;5070029;28;20432;-78
2024/01/26 09:21:12;;;;;;;14.60;2.83;;;5.10;99.90;;;;;;5070230;28;20462;-78
2024/01/26 09:23:38;;;;;;;14.60;2.92;;;5.20;99.90;;;;;;5051846;28;20033;-77
2024/01/26 09:26:04;;;;;;;10.77;2.33;;;5.30;99.90;;;;;;5052517;28;20100;-78
2024/01/26 09:28:29;;;;;;;14.85;2.45;;;5.30;99.90;;;;;;5052185;28;20029;-78
2024/01/26 09:30:55;;;;;;;13.70;2.45;;;5.40;99.90;;;;;;5049998;28;20425;-78
2024/01/26 09:33:21;;;;;;;10.38;2.20;;;5.40;99.90;;;;;;5050315;28;20104;-78
2024/01/26 09:35:48;;;;;;;11.52;2.40;;;5.40;99.90;;;;;;5050850;28;20159;-78
2024/01/26 09:38:14;;;;;;;10.23;2.20;;;5.40;99.90;;;;;;5054270;28;20063;-77
2024/01/26 09:40:39;;;;;;;16.33;2.60;;;5.50;99.90;;;;;;5035852;28;20101;-77
2024/01/26 09:43:08;;;;;;;11.95;2.67;;;5.50;99.90;;;;;;5054008;28;20025;-78
2024/01/26 09:45:34;;;;;;;13.45;2.80;;;5.60;99.90;;;;;;5053840;28;20040;-77
2024/01/26 09:48:05;;;;;;;17.58;2.97;;;5.60;99.90;;;;;;5053828;28;20040;-79
2024/01/26 09:50:32;;;;;;;15.95;2.92;;;5.70;99.90;;;;;;5053638;28;20017;-81
2024/01/26 09:53:03;;;;;;;16.95;3.55;;;5.70;99.90;;;;;;5054119;28;20192;-79
2024/01/26 09:55:32;;;;;;;13.27;3.08;;;5.80;99.90;;;;;;5053131;28;20116;-79
2024/01/26 09:57:58;;;;;;;19.48;3.15;;;5.80;99.90;;;;;;5053928;28;20049;-79
2024/01/26 10:00:24;;;;;;;17.70;2.97;;;5.90;99.90;;;;;;5053040;28;20051;-80
2024/01/26 10:02:50;;;;;;;14.93;2.83;;;5.90;99.90;;;;;;5054033;28;20039;-80
2024/01/26 10:05:20;;;;;;;14.77;2.63;;;6.00;99.90;;;;;;5054684;28;20039;-79
2024/01/26 10:07:46;;;;;;;16.20;2.80;;;6.00;99.90;;;;;;5036607;28;20025;-79
2024/01/26 10:10:12;;;;;;;12.00;2.83;;;6.00;99.90;;;;;;5053769;28;20078;-79
2024/01/26 10:12:40;;;;;;;16.48;2.85;;;6.10;99.90;;;;;;5053341;28;20079;-79
2024/01/26 10:15:08;;;;;;;15.10;2.63;;;6.10;99.90;;;;;;5053738;28;20423;-80
2024/01/26 10:17:34;;;;;;;17.90;2.83;;;6.10;99.90;;;;;;5053460;28;20083;-79
2024/01/26 10:20:08;;;;;;;13.73;2.30;;;6.20;99.90;;;;;;5053829;28;20517;-79
2024/01/26 10:22:36;;;;;;;15.77;3.05;;;6.20;99.90;;;;;;5064392;28;20070;-79
2024/01/26 10:25:02;;;;;;;13.27;2.17;;;6.20;99.90;;;;;;5073549;28;20546;-80
2024/01/26 10:27:32;;;;;;;17.92;2.75;;;6.30;99.90;;;;;;5072876;28;20070;-80
2024/01/26 10:29:58;;;;;;;13.43;3.17;;;6.30;99.90;;;;;;5073250;28;20036;-80
2024/01/26 10:32:27;;;;;;;11.05;2.53;;;6.30;99.90;;;;;;5071748;28;20033;-80
2024/01/26 10:34:58;;;;;;;17.83;3.60;;;6.30;99.90;;;;;;5053773;28;20036;-80
2024/01/26 10:37:33;;;;;;;13.48;3.60;;;6.40;99.90;;;;;;5053172;28;20436;-80
2024/01/26 10:40:00;;;;;;;15.02;2.58;;;6.40;99.90;;;;;;5059252;28;20032;-80
2024/01/26 10:42:32;;;;;;;19.15;2.63;;;6.40;99.90;;;;;;5071200;28;20029;-80
2024/01/26 10:45:00;;;;;;;13.63;3.13;;;6.40;99.90;;;;;;5073785;28;20027;-79
2024/01/26 10:47:26;;;;;;;15.35;2.58;;;6.50;99.90;;;;;;5070930;28;20039;-81
2024/01/26 10:49:57;;;;;;;14.98;3.20;;;6.50;99.90;;;;;;5072152;28;20029;-81
2024/01/26 10:52:24;;;;;;;14.23;2.50;;;6.60;99.90;;;;;;5072611;28;20077;-81
2024/01/26 10:54:51;;;;;;;17.33;3.65;;;6.60;99.90;;;;;;5052194;28;20025;-81
2024/01/26 10:57:19;;;;;;;11.10;2.42;;;6.70;99.90;;;;;;5072133;28;20060;-80
2024/01/26 10:59:46;;;;;;;9.45;2.30;;;6.70;99.90;;;;;;5072302;28;20127;-80
2024/01/26 11:02:18;;;;;;;12.68;2.42;;;6.70;99.90;;;;;;5072895;28;20399;-80
2024/01/26 11:04:44;;;;;;;14.07;2.90;;;6.70;99.90;;;;;;5054048;28;20033;-80
2024/01/26 11:07:10;;;;;;;16.20;2.60;;;6.80;99.90;;;;;;5072806;28;20071;-80
2024/01/26 11:09:41;;;;;;;8.20;2.08;;;6.80;99.90;;;;;;5071927;28;20052;-80
2024/01/26 11:12:29;;;;;;;10.15;2.00;;;6.80;99.90;;;;;;5072350;28;20066;-81
2024/01/26 11:15:15;;;;;;;17.20;3.00;;;6.80;99.90;;;;;;5073337;28;20505;-83
2024/01/26 11:17:50;;;;;;;15.85;2.60;;;6.80;99.90;;;;;;5071623;28;20089;-82
2024/01/26 11:20:25;;;;;;;14.35;2.28;;;6.80;99.90;;;;;;5072706;28;20316;-84
2024/01/26 11:23:11;;;;;;;14.07;2.47;;;6.90;99.90;;;;;;5072494;28;20347;-85
2024/01/26 11:25:39;;;;;;;16.80;2.60;;;6.90;99.90;;;;;;5072571;28;20052;-85
2024/01/26 11:28:06;;;;;;;13.57;2.40;;;6.90;99.90;;;;;;5054193;28;20405;-86
2024/01/26 11:30:34;;;;;;;10.95;2.30;;;6.90;99.90;;;;;;5054033;28;20350;-84
2024/01/26 11:33:01;;;;;;;9.75;2.20;;;6.90;99.90;;;;;;5071942;28;20389;-85
2024/01/26 11:35:27;;;;;;;15.63;2.50;;;7.00;99.90;;;;;;5053853;28;20362;-86
2024/01/26 11:37:58;;;;;;;19.88;2.67;;;7.00;99.90;;;;;;5071872;28;20080;-85
2024/01/26 11:40:24;;;;;;;13.85;2.78;;;7.00;99.90;;;;;;5072084;28;20118;-87
2024/01/26 11:42:50;;;;;;;12.77;2.70;;;7.10;99.90;;;;;;5072076;28;20036;-85
2024/01/26 11:45:25;;;;;;;12.65;2.50;;;7.10;99.90;;;;;;5072585;28;20033;-85
2024/01/26 11:47:50;;;;;;;14.88;2.80;;;7.10;99.90;;;;;;5073238;28;20020;-85
2024/01/26 11:50:16;;;;;;;10.73;2.30;;;7.20;99.90;;;;;;5073464;28;20491;-85
2024/01/26 11:52:42;;;;;;;13.52;2.15;;;7.20;99.90;;;;;;5072492;28;20029;-86
2024/01/26 11:55:08;;;;;;;17.42;3.15;;;7.20;99.90;;;;;;5073226;28;20444;-86
2024/01/26 11:57:34;;;;;;;13.65;2.10;;;7.20;99.90;;;;;;5054147;28;20055;-86
2024/01/26 12:00:03;;;;;;;14.18;2.65;;;7.20;99.90;;;;;;5054188;28;20016;-84
2024/01/26 12:02:29;;;;;;;13.10;2.03;;;7.30;99.90;;;;;;5071302;28;20028;-85
2024/01/26 12:04:54;;;;;;;14.05;2.55;;;7.30;99.90;;;;;;5053722;28;20040;-84
2024/01/26 12:07:22;;;;;;;15.40;2.15;;;7.40;99.90;;;;;;5071308;28;20049;-87
2024/01/26 12:09:48;;;;;;;22.65;3.45;;;7.40;99.90;;;;;;5073578;28;20025;-87
2024/01/26 12:12:15;;;;;;;14.35;2.60;;;7.40;99.90;;;;;;5091056;28;20078;-84
2024/01/26 12:14:41;;;;;;;13.07;2.33;;;7.40;99.90;;;;;;5092267;28;20035;-85
2024/01/26 12:17:07;;;;;;;8.93;2.38;;;7.40;99.90;;;;;;5074667;28;20028;-85
2024/01/26 12:19:32;;;;;;;10.90;2.55;;;7.50;99.90;;;;;;5072830;28;20024;-85
2024/01/26 12:21:58;;;;;;;12.27;1.85;;;7.50;99.90;;;;;;5073285;28;20052;-89
2024/01/26 12:24:24;;;;;;;14.63;2.92;;;7.60;99.90;;;;;;5073250;28;20032;-88
2024/01/26 12:26:51;;;;;;;13.30;2.55;;;7.60;99.90;;;;;;5057679;28;20028;-89
2024/01/26 12:29:17;;;;;;;15.73;2.67;;;7.60;99.90;;;;;;5056385;28;20435;-85
2024/01/26 12:31:43;;;;;;;13.02;2.28;;;7.70;99.90;;;;;;5052677;28;20079;-86
2024/01/26 12:34:13;;;;;;;10.60;2.30;;;7.70;99.90;;;;;;5071287;28;20458;-85
2024/01/26 12:36:39;;;;;;;12.73;2.13;;;7.70;99.90;;;;;;5052084;28;20021;-85
2024/01/26 12:39:05;;;;;;;10.00;2.33;;;7.70;99.90;;;;;;5070998;28;20108;-86
2024/01/26 12:41:32;;;;;;;16.63;2.28;;;7.70;99.90;;;;;;5051926;28;20043;-86
2024/01/26 12:43:59;;;;;;;7.30;1.63;;;7.70;99.90;;;;;;5052999;28;20056;-86
2024/01/26 12:46:25;;;;;;;17.60;3.08;;;7.70;99.90;;;;;;5070424;28;20502;-85